Time;durP1;ratioP1;P1;durP2;ratioP2;P2;SDS_P1;SDS_P2;PMS_P1;PMS_P2;Temp;Humidity;BMP_temperature;BMP_pressure;BME280_temperature;BME280_humidity;BME280_pressure;Samples;Min_cycle;Max_cycle;Signal;HPM_P1;HPM_P2
2021/09/17 00:01:54;;;;;;;0.25;0.25;;;;;;;12.97;100.00;100757.66;5032805;28;20041;-81
2021/09/17 00:04:27;;;;;;;0.35;0.28;;;;;;;12.99;100.00;100760.94;5050893;28;20049;-80
2021/09/17 00:07:02;;;;;;;0.45;0.40;;;;;;;13.00;100.00;100760.63;5039531;28;20056;-80
2021/09/17 00:09:44;;;;;;;0.20;0.20;;;;;;;12.96;100.00;100758.78;5054087;28;20049;-81
2021/09/17 00:12:17;;;;;;;0.30;0.30;;;;;;;12.99;100.00;100752.75;5067563;28;20072;-80
2021/09/17 00:14:51;;;;;;;0.20;0.20;;;;;;;12.99;100.00;100748.06;5067221;28;20416;-81
2021/09/17 00:17:24;;;;;;;0.47;0.30;;;;;;;12.86;100.00;100744.16;5048109;28;20045;-80
2021/09/17 00:19:57;;;;;;;0.20;0.20;;;;;;;12.95;100.00;100746.22;5051463;28;20040;-80
2021/09/17 00:22:27;;;;;;;0.30;0.30;;;;;;;12.97;100.00;100746.75;5037476;28;20064;-80
2021/09/17 00:25:00;;;;;;;0.70;0.30;;;;;;;12.93;100.00;100741.88;5068000;28;20053;-82
2021/09/17 00:27:28;;;;;;;0.43;0.38;;;;;;;13.06;100.00;100737.63;5051433;28;20066;-81
2021/09/17 00:29:56;;;;;;;0.30;0.30;;;;;;;12.88;100.00;100744.66;5067683;28;20516;-82
2021/09/17 00:32:25;;;;;;;0.20;0.20;;;;;;;12.90;100.00;100736.19;5034248;28;20057;-79
2021/09/17 00:34:58;;;;;;;0.20;0.20;;;;;;;12.95;100.00;100736.09;5067160;28;20405;-80
2021/09/17 00:37:28;;;;;;;0.20;0.20;;;;;;;12.78;100.00;100735.81;5052409;28;20052;-80
2021/09/17 00:40:01;;;;;;;0.22;0.20;;;;;;;12.82;100.00;100734.13;5033394;28;20057;-81
2021/09/17 00:42:37;;;;;;;0.28;0.28;;;;;;;12.75;100.00;100743.47;5050418;28;20064;-82
2021/09/17 00:45:13;;;;;;;0.20;0.20;;;;;;;12.73;100.00;100742.13;5039097;28;20045;-82
2021/09/17 00:47:46;;;;;;;0.63;0.30;;;;;;;12.86;100.00;100743.34;5051134;28;20045;-83
2021/09/17 00:50:17;;;;;;;0.55;0.20;;;;;;;12.83;100.00;100742.03;5042574;28;20060;-80
2021/09/17 00:52:52;;;;;;;0.45;0.30;;;;;;;12.77;100.00;100743.19;5050156;28;20052;-81
2021/09/17 00:55:26;;;;;;;0.70;0.30;;;;;;;12.96;100.00;100745.94;5047831;28;20057;-80
2021/09/17 00:57:55;;;;;;;0.30;0.25;;;;;;;12.79;100.00;100751.91;5047860;28;20064;-80
2021/09/17 01:00:28;;;;;;;0.70;0.30;;;;;;;12.66;100.00;100741.69;5065932;28;20056;-80
2021/09/17 01:03:01;;;;;;;0.90;0.32;;;;;;;12.81;100.00;100749.69;5051908;28;20045;-80
2021/09/17 01:05:35;;;;;;;0.30;0.20;;;;;;;12.72;100.00;100754.19;5067442;28;20049;-82
2021/09/17 01:08:10;;;;;;;0.20;0.20;;;;;;;12.73;100.00;100755.78;5067585;28;20067;-80
2021/09/17 01:10:44;;;;;;;1.02;0.30;;;;;;;12.84;100.00;100748.28;5066998;28;20045;-80
2021/09/17 01:13:18;;;;;;;0.22;0.22;;;;;;;12.68;100.00;100748.50;5052060;28;20044;-80
2021/09/17 01:15:46;;;;;;;0.30;0.30;;;;;;;12.75;100.00;100742.69;5037019;28;20053;-80
2021/09/17 01:18:15;;;;;;;0.20;0.20;;;;;;;12.70;100.00;100749.00;5067291;28;20045;-80
2021/09/17 01:20:48;;;;;;;0.20;0.20;;;;;;;12.60;100.00;100740.94;5051865;28;20103;-81
2021/09/17 01:23:22;;;;;;;0.20;0.20;;;;;;;12.84;100.00;100748.28;5052554;28;20053;-81
2021/09/17 01:25:56;;;;;;;0.20;0.20;;;;;;;12.68;100.00;100743.03;5067515;28;20052;-81
2021/09/17 01:28:30;;;;;;;0.70;0.40;;;;;;;12.68;100.00;100745.75;5047790;28;20052;-80
2021/09/17 01:31:00;;;;;;;0.45;0.30;;;;;;;12.65;100.00;100743.63;5062634;28;20060;-80
2021/09/17 01:33:33;;;;;;;0.85;0.30;;;;;;;12.71;100.00;100741.63;5067360;28;20064;-79
2021/09/17 01:36:10;;;;;;;0.40;0.30;;;;;;;12.80;100.00;100745.34;5050854;28;20045;-80
2021/09/17 01:38:44;;;;;;;0.20;0.20;;;;;;;12.58;100.00;100738.50;5056980;28;20049;-80
2021/09/17 01:41:17;;;;;;;0.20;0.20;;;;;;;12.63;100.00;100740.34;5067194;28;20053;-79
2021/09/17 01:43:55;;;;;;;0.30;0.30;;;;;;;12.69;100.00;100741.09;5063461;28;20053;-81
2021/09/17 01:46:28;;;;;;;0.25;0.25;;;;;;;12.69;100.00;100752.03;5043248;28;20072;-80
2021/09/17 01:48:56;;;;;;;0.40;0.30;;;;;;;12.69;100.00;100741.09;5066930;28;20070;-80
2021/09/17 01:51:30;;;;;;;0.20;0.20;;;;;;;12.61;100.00;100739.84;5046755;28;20429;-83
2021/09/17 01:54:04;;;;;;;0.30;0.30;;;;;;;12.74;100.00;100735.56;5048346;28;20057;-80
2021/09/17 01:56:37;;;;;;;0.20;0.20;;;;;;;12.66;100.00;100739.75;5050473;28;20057;-80
2021/09/17 01:59:11;;;;;;;0.30;0.20;;;;;;;12.54;100.00;100734.72;5067006;28;20061;-81
2021/09/17 02:01:39;;;;;;;0.57;0.20;;;;;;;12.51;100.00;100734.50;5067216;28;20489;-80
2021/09/17 02:04:07;;;;;;;0.20;0.20;;;;;;;12.57;100.00;100744.25;5070412;28;20055;-80
2021/09/17 02:07:41;;;;;;;0.50;0.28;;;;;;;12.62;100.00;100740.66;5055390;28;20052;-81
2021/09/17 02:10:12;;;;;;;0.30;0.30;;;;;;;12.62;100.00;100737.91;5044352;28;20053;-80
2021/09/17 02:12:45;;;;;;;0.20;0.20;;;;;;;12.61;100.00;100736.28;5052758;28;20056;-80
2021/09/17 02:15:18;;;;;;;0.20;0.20;;;;;;;12.53;100.00;100735.84;5055210;28;20120;-81
2021/09/17 02:17:52;;;;;;;0.28;0.20;;;;;;;12.47;100.00;100731.56;5054863;28;20048;-81
2021/09/17 02:20:20;;;;;;;0.13;0.13;;;;;;;12.52;100.00;100730.66;5061179;28;20711;-80
2021/09/17 02:22:54;;;;;;;0.38;0.38;;;;;;;12.51;100.00;100716.22;5065724;28;20052;-80
2021/09/17 02:25:29;;;;;;;0.20;0.20;;;;;;;12.58;100.00;100730.31;5070188;28;20049;-79
2021/09/17 02:27:57;;;;;;;0.20;0.20;;;;;;;12.37;99.95;100716.13;5053702;28;20052;-80
2021/09/17 02:30:30;;;;;;;0.38;0.30;;;;;;;12.43;100.00;100719.59;5053179;28;20421;-80
2021/09/17 02:33:03;;;;;;;0.32;0.25;;;;;;;12.50;99.73;100724.69;5052824;28;20517;-81
2021/09/17 02:35:37;;;;;;;0.20;0.20;;;;;;;12.56;98.35;100723.53;5067887;28;20049;-80
2021/09/17 02:38:10;;;;;;;0.28;0.28;;;;;;;12.58;97.55;100719.41;5053022;28;20049;-80
2021/09/17 02:40:45;;;;;;;0.47;0.30;;;;;;;12.50;97.43;100722.78;5053393;28;20433;-80
2021/09/17 02:43:18;;;;;;;0.20;0.20;;;;;;;12.53;97.58;100726.84;5048079;28;20355;-80
2021/09/17 02:45:51;;;;;;;0.20;0.20;;;;;;;12.57;96.27;100714.22;5066413;28;20440;-81
2021/09/17 02:48:24;;;;;;;0.20;0.20;;;;;;;12.51;96.67;100718.13;5053183;28;20060;-81
2021/09/17 02:50:53;;;;;;;0.20;0.20;;;;;;;12.44;95.75;100715.72;5054280;28;20437;-82
2021/09/17 02:53:26;;;;;;;0.22;0.22;;;;;;;12.44;97.73;100721.19;5064423;28;20053;-80
2021/09/17 02:56:00;;;;;;;0.32;0.20;;;;;;;12.44;96.64;100726.66;5037662;28;20051;-79
2021/09/17 02:58:33;;;;;;;0.20;0.20;;;;;;;12.56;97.00;100724.31;5052891;28;20056;-80
2021/09/17 03:01:02;;;;;;;0.13;0.13;;;;;;;12.51;96.07;100721.69;5043306;28;20048;-81
2021/09/17 03:03:30;;;;;;;0.20;0.20;;;;;;;12.38;96.01;100725.91;5066027;28;20485;-81
2021/09/17 03:06:09;;;;;;;0.20;0.20;;;;;;;12.32;95.56;100718.91;5043876;28;20045;-81
2021/09/17 03:08:37;;;;;;;0.30;0.30;;;;;;;12.29;95.15;100708.56;5049912;28;20055;-80
2021/09/17 03:11:12;;;;;;;0.20;0.20;;;;;;;12.34;95.84;100711.22;5049630;28;20116;-81
2021/09/17 03:13:40;;;;;;;0.30;0.30;;;;;;;12.30;95.83;100718.34;5051737;28;20072;-80
2021/09/17 03:16:13;;;;;;;0.22;0.22;;;;;;;12.42;94.63;100707.84;5053020;28;20044;-81
2021/09/17 03:18:41;;;;;;;0.20;0.20;;;;;;;12.40;93.64;100707.34;5050173;28;20042;-80
2021/09/17 03:21:15;;;;;;;0.20;0.20;;;;;;;12.39;93.60;100700.25;5043151;28;20052;-80
2021/09/17 03:23:43;;;;;;;0.28;0.28;;;;;;;12.36;92.25;100691.81;5066132;28;20057;-80
2021/09/17 03:26:17;;;;;;;0.20;0.20;;;;;;;12.37;92.06;100693.44;5032688;28;20054;-80
2021/09/17 03:29:10;;;;;;;0.30;0.30;;;;;;;12.40;91.87;100706.50;5065560;28;20406;-80
2021/09/17 03:31:43;;;;;;;0.20;0.20;;;;;;;12.30;93.51;100696.53;5055116;28;20048;-80
2021/09/17 03:34:11;;;;;;;0.25;0.20;;;;;;;12.38;91.12;100708.72;5040539;28;20631;-80
2021/09/17 03:36:44;;;;;;;0.20;0.20;;;;;;;12.34;92.09;100708.50;5049400;28;20049;-80
2021/09/17 03:39:18;;;;;;;0.20;0.20;;;;;;;12.41;91.73;100711.69;5052073;28;20053;-81
2021/09/17 03:41:53;;;;;;;0.20;0.20;;;;;;;12.32;90.77;100707.16;5048272;28;20049;-81
2021/09/17 03:44:26;;;;;;;0.22;0.20;;;;;;;12.37;91.41;100707.94;5062905;28;20048;-80
2021/09/17 03:46:59;;;;;;;0.10;0.10;;;;;;;12.30;90.56;100706.63;5035823;28;20058;-80
2021/09/17 03:49:27;;;;;;;0.20;0.20;;;;;;;12.31;90.42;100703.63;5065444;28;20056;-81
2021/09/17 03:52:00;;;;;;;0.13;0.13;;;;;;;12.29;90.81;100711.28;5058034;28;20061;-80
2021/09/17 03:54:55;;;;;;;0.20;0.20;;;;;;;12.37;91.35;100718.84;5047147;28;20077;-80
2021/09/17 03:57:25;;;;;;;0.20;0.20;;;;;;;12.20;91.12;100716.56;5053351;28;20061;-80
2021/09/17 03:59:58;;;;;;;0.20;0.20;;;;;;;12.30;90.39;100717.56;5052945;28;20370;-81
2021/09/17 04:02:39;;;;;;;0.20;0.20;;;;;;;12.23;91.44;100718.69;5054021;28;20060;-80
2021/09/17 04:05:12;;;;;;;0.20;0.20;;;;;;;12.29;90.33;100721.38;5044607;28;20405;-80
2021/09/17 04:07:45;;;;;;;0.10;0.10;;;;;;;12.31;89.69;100727.38;5052667;28;20041;-80
2021/09/17 04:10:16;;;;;;;0.20;0.20;;;;;;;12.24;90.48;100725.00;5050643;28;20056;-80
2021/09/17 04:12:51;;;;;;;2.00;0.20;;;;;;;12.18;89.34;100723.41;5066956;28;20060;-79
2021/09/17 04:15:24;;;;;;;0.20;0.20;;;;;;;12.20;88.19;100713.03;5067242;28;20505;-80
2021/09/17 04:17:57;;;;;;;0.30;0.20;;;;;;;12.16;87.74;100710.06;5051895;28;20052;-79
2021/09/17 04:20:31;;;;;;;0.20;0.20;;;;;;;12.08;87.79;100716.97;5051130;28;20053;-80
2021/09/17 04:23:04;;;;;;;0.17;0.17;;;;;;;12.15;87.75;100724.81;5052552;28;20397;-81
2021/09/17 04:25:37;;;;;;;0.20;0.20;;;;;;;12.07;89.36;100728.97;5051195;28;20067;-80
2021/09/17 04:28:12;;;;;;;0.20;0.20;;;;;;;12.06;88.71;100718.34;5068736;28;20440;-82
2021/09/17 04:30:45;;;;;;;0.20;0.20;;;;;;;12.07;88.02;100728.97;5051752;28;20079;-82
2021/09/17 04:33:18;;;;;;;0.20;0.20;;;;;;;11.81;88.63;100700.31;5068497;28;20422;-80
2021/09/17 04:35:51;;;;;;;0.20;0.20;;;;;;;12.15;89.55;100732.16;5068397;28;20708;-80
2021/09/17 04:38:25;;;;;;;0.52;0.20;;;;;;;11.96;90.05;100732.09;5068236;28;20056;-83
2021/09/17 04:40:58;;;;;;;0.30;0.30;;;;;;;12.01;90.92;100729.31;5052130;28;20053;-80
2021/09/17 04:43:28;;;;;;;0.13;0.13;;;;;;;12.07;90.97;100730.91;5068028;28;20056;-81
2021/09/17 04:46:02;;;;;;;0.20;0.20;;;;;;;11.89;91.15;100726.94;5068174;28;20071;-82
2021/09/17 04:48:35;;;;;;;0.20;0.20;;;;;;;11.94;90.36;100740.56;5052660;28;20041;-80
2021/09/17 04:51:08;;;;;;;0.20;0.20;;;;;;;11.97;87.53;100739.19;5052255;28;20045;-80
2021/09/17 04:53:36;;;;;;;0.20;0.20;;;;;;;12.01;86.97;100730.13;5050455;28;20497;-80
2021/09/17 04:56:09;;;;;;;0.20;0.20;;;;;;;11.96;87.47;100729.34;5036388;28;20053;-81
2021/09/17 04:58:44;;;;;;;0.17;0.17;;;;;;;11.88;88.28;100737.03;5052938;28;20047;-80
2021/09/17 05:01:12;;;;;;;0.10;0.10;;;;;;;11.77;88.12;100723.81;5052426;28;20492;-81
2021/09/17 05:03:45;;;;;;;0.20;0.20;;;;;;;11.77;88.98;100746.41;5052549;28;20496;-82
2021/09/17 05:06:18;;;;;;;0.20;0.20;;;;;;;11.81;89.65;100749.41;5050978;28;20052;-81
2021/09/17 05:08:47;;;;;;;0.20;0.20;;;;;;;11.70;89.33;100746.75;5067419;28;20053;-81
2021/09/17 05:11:20;;;;;;;0.10;0.10;;;;;;;11.71;90.62;100755.72;5052071;28;20041;-80
2021/09/17 05:13:49;;;;;;;0.10;0.10;;;;;;;11.69;90.33;100761.47;5050908;28;20515;-81
2021/09/17 05:16:17;;;;;;;0.30;0.30;;;;;;;11.72;90.61;100758.19;5067652;28;20500;-81
2021/09/17 05:18:51;;;;;;;0.20;0.20;;;;;;;11.69;91.51;100757.94;5050735;28;20056;-81
2021/09/17 05:21:19;;;;;;;0.20;0.20;;;;;;;11.67;91.25;100752.78;5049906;28;20049;-85
2021/09/17 05:23:48;;;;;;;0.20;0.20;;;;;;;11.62;91.30;100758.25;5066574;28;20516;-81
2021/09/17 05:26:21;;;;;;;0.20;0.20;;;;;;;11.58;91.23;100747.09;5052394;28;20481;-80
2021/09/17 05:32:56;;;;;;;0.20;0.20;;;;;;;11.50;93.67;100750.47;5050279;28;20516;-81
2021/09/17 05:35:29;;;;;;;0.20;0.20;;;;;;;11.36;92.95;100730.38;5054346;28;20401;-82
2021/09/17 05:37:57;;;;;;;0.73;0.20;;;;;;;11.36;93.67;100741.28;5053208;28;20056;-81
2021/09/17 05:40:31;;;;;;;0.30;0.20;;;;;;;11.38;93.28;100752.72;5054525;28;20468;-82
2021/09/17 05:42:59;;;;;;;0.20;0.20;;;;;;;11.57;93.03;100750.13;5054264;28;20445;-81
2021/09/17 05:45:33;;;;;;;0.45;0.20;;;;;;;11.52;92.89;100750.19;5054105;28;20049;-82
2021/09/17 05:48:02;;;;;;;0.20;0.20;;;;;;;11.62;93.02;100754.72;5065765;28;20037;-83
2021/09/17 05:50:48;;;;;;;0.20;0.20;;;;;;;11.53;93.64;100760.78;5068844;28;20049;-81
2021/09/17 05:53:16;;;;;;;0.20;0.20;;;;;;;11.47;94.52;100755.66;5050823;28;20448;-82
2021/09/17 05:56:16;;;;;;;0.20;0.20;;;;;;;11.65;92.83;100752.22;5051098;28;20037;-81
2021/09/17 05:58:44;;;;;;;0.10;0.10;;;;;;;11.61;93.94;100758.53;5050752;28;20060;-80
2021/09/17 06:01:17;;;;;;;0.15;0.15;;;;;;;11.64;93.20;100750.63;5052782;28;20392;-83
2021/09/17 06:03:52;;;;;;;0.52;0.20;;;;;;;11.58;91.96;100749.81;5066288;28;20049;-81
2021/09/17 06:06:29;;;;;;;0.10;0.10;;;;;;;11.69;92.81;100756.00;5052854;28;20037;-81
2021/09/17 06:08:58;;;;;;;0.45;0.22;;;;;;;11.77;92.02;100745.63;5067079;28;20049;-81
2021/09/17 06:11:31;;;;;;;0.10;0.10;;;;;;;11.80;91.49;100755.94;5049807;28;20053;-79
2021/09/17 06:13:59;;;;;;;0.20;0.20;;;;;;;11.83;91.27;100753.44;5067766;28;20064;-80
2021/09/17 06:16:34;;;;;;;0.20;0.20;;;;;;;11.73;92.56;100759.00;5069175;28;20060;-81
2021/09/17 06:19:09;;;;;;;0.52;0.22;;;;;;;11.77;92.33;100756.53;5066642;28;20049;-80
2021/09/17 06:21:42;;;;;;;0.20;0.20;;;;;;;11.94;90.41;100756.09;5052031;28;20382;-80
2021/09/17 06:24:15;;;;;;;0.20;0.20;;;;;;;11.76;91.16;100755.69;5051517;28;20041;-81
2021/09/17 06:26:51;;;;;;;0.20;0.20;;;;;;;11.65;91.20;100752.22;5067606;28;20048;-81
2021/09/17 06:29:24;;;;;;;0.20;0.20;;;;;;;11.73;92.53;100754.34;5052510;28;20041;-79
2021/09/17 06:31:57;;;;;;;0.20;0.20;;;;;;;11.57;92.88;100736.47;5064386;28;20059;-85
2021/09/17 06:34:32;;;;;;;0.20;0.20;;;;;;;11.76;92.77;100750.25;5064762;28;20049;-79
2021/09/17 06:37:05;;;;;;;0.20;0.20;;;;;;;11.64;91.86;100760.69;5044168;28;20063;-81
2021/09/17 06:39:33;;;;;;;0.20;0.20;;;;;;;11.76;91.88;100768.53;5039654;28;20429;-82
2021/09/17 06:42:07;;;;;;;0.20;0.20;;;;;;;11.68;92.12;100761.75;5033796;28;20049;-84
2021/09/17 06:44:41;;;;;;;0.20;0.20;;;;;;;11.82;92.56;100770.09;5038602;28;20045;-82
2021/09/17 06:47:11;;;;;;;0.20;0.20;;;;;;;11.90;91.41;100764.84;5063423;28;20060;-83
2021/09/17 06:49:46;;;;;;;0.20;0.20;;;;;;;11.85;91.18;100758.63;5033177;28;20064;-84
2021/09/17 06:52:14;;;;;;;0.20;0.20;;;;;;;11.98;91.03;100760.69;5036086;28;20049;-82
2021/09/17 06:54:47;;;;;;;0.20;0.20;;;;;;;11.88;93.08;100760.78;5035411;28;20049;-85
2021/09/17 06:57:20;;;;;;;0.20;0.20;;;;;;;12.08;91.26;100766.06;5033992;28;20061;-84
2021/09/17 06:59:53;;;;;;;0.13;0.13;;;;;;;12.17;90.94;100762.72;5041076;28;20131;-80
2021/09/17 07:02:27;;;;;;;0.20;0.20;;;;;;;12.07;89.72;100764.44;5043211;28;20497;-82
2021/09/17 07:04:56;;;;;;;0.20;0.20;;;;;;;12.06;90.87;100753.81;5058162;28;20049;-81
2021/09/17 07:07:27;;;;;;;0.20;0.20;;;;;;;12.17;91.27;100765.44;5041054;28;20053;-82
2021/09/17 07:10:00;;;;;;;0.20;0.20;;;;;;;11.99;91.38;100756.88;5047516;28;20053;-81
2021/09/17 07:12:34;;;;;;;0.20;0.20;;;;;;;12.04;89.95;100766.91;5033878;28;20057;-81
2021/09/17 07:15:08;;;;;;;0.20;0.20;;;;;;;11.87;90.17;100753.69;5033907;28;20059;-84
2021/09/17 07:17:41;;;;;;;0.30;0.30;;;;;;;11.97;90.30;100769.97;5036392;28;20609;-83
2021/09/17 07:20:16;;;;;;;0.30;0.30;;;;;;;11.97;88.83;100766.44;5033508;28;20053;-81
2021/09/17 07:22:50;;;;;;;0.20;0.20;;;;;;;11.90;91.08;100772.19;5056411;28;20060;-82
2021/09/17 07:25:23;;;;;;;0.20;0.20;;;;;;;11.98;90.26;100771.63;5038597;28;20052;-83
2021/09/17 07:27:52;;;;;;;0.20;0.20;;;;;;;12.03;89.84;100762.59;5049339;28;20063;-81
2021/09/17 07:30:25;;;;;;;0.20;0.20;;;;;;;12.00;90.39;100753.06;5049622;28;20057;-84
2021/09/17 07:32:58;;;;;;;0.20;0.20;;;;;;;12.12;90.61;100779.94;5052745;28;20171;-82
2021/09/17 07:35:28;;;;;;;0.20;0.20;;;;;;;11.91;89.22;100779.28;5038014;28;20048;-84
2021/09/17 07:38:01;;;;;;;0.20;0.20;;;;;;;12.02;91.36;100777.31;5032882;28;20052;-85
2021/09/17 07:40:37;;;;;;;0.30;0.30;;;;;;;11.99;89.50;100783.34;5028623;28;20698;-85
2021/09/17 07:43:16;;;;;;;0.20;0.20;;;;;;;12.04;89.69;100783.28;5030392;28;20084;-83
2021/09/17 07:45:49;;;;;;;0.22;0.20;;;;;;;12.06;89.45;100775.66;5034685;28;20049;-81
2021/09/17 07:48:22;;;;;;;0.20;0.20;;;;;;;12.03;89.36;100778.94;5029310;28;20063;-84
2021/09/17 07:51:23;;;;;;;0.20;0.20;;;;;;;12.29;89.04;100784.13;5049647;28;20095;-83
2021/09/17 07:53:56;;;;;;;0.20;0.20;;;;;;;12.42;88.96;100780.72;5028867;28;21766;-83
2021/09/17 07:56:29;;;;;;;0.20;0.20;;;;;;;12.34;88.97;100789.56;5046588;28;21295;-82
2021/09/17 07:58:59;;;;;;;0.20;0.20;;;;;;;12.21;87.48;100794.59;5050078;28;21409;-80
2021/09/17 08:01:32;;;;;;;0.55;0.20;;;;;;;12.40;88.93;100783.75;5031697;28;20147;-82
2021/09/17 08:04:05;;;;;;;0.17;0.17;;;;;;;12.36;88.03;100790.06;5046532;28;20057;-79
2021/09/17 08:06:35;;;;;;;0.30;0.30;;;;;;;12.44;87.90;100783.97;5027971;28;20734;-83
2021/09/17 08:09:08;;;;;;;0.20;0.20;;;;;;;12.43;86.13;100787.81;5020551;28;20379;-85
2021/09/17 08:11:43;;;;;;;0.20;0.20;;;;;;;12.37;87.03;100791.69;5024854;28;20084;-82
2021/09/17 08:14:11;;;;;;;0.20;0.20;;;;;;;12.58;87.97;100787.66;5027160;28;20064;-85
2021/09/17 08:16:45;;;;;;;0.20;0.20;;;;;;;12.46;85.82;100765.41;5016070;28;20413;-84
2021/09/17 08:19:18;;;;;;;1.98;0.20;;;;;;;12.60;86.20;100790.09;5007413;28;20057;-84
2021/09/17 08:21:48;;;;;;;0.20;0.20;;;;;;;12.70;87.08;100794.63;5017176;28;20061;-83
2021/09/17 08:24:21;;;;;;;0.20;0.20;;;;;;;12.69;86.13;100790.25;5027635;28;20804;-83
2021/09/17 08:26:56;;;;;;;0.20;0.20;;;;;;;12.84;85.42;100795.53;5023642;28;21721;-84
2021/09/17 08:29:29;;;;;;;0.20;0.20;;;;;;;12.68;87.26;100803.09;5044657;28;21428;-85
2021/09/17 08:32:03;;;;;;;0.20;0.20;;;;;;;12.66;86.92;100797.09;5027646;28;20048;-84
2021/09/17 08:34:40;;;;;;;0.20;0.20;;;;;;;12.75;85.33;100795.34;5029086;28;20524;-82
2021/09/17 08:37:15;;;;;;;0.20;0.20;;;;;;;12.65;86.05;100795.50;5026479;28;20060;-82
2021/09/17 08:39:50;;;;;;;0.20;0.20;;;;;;;12.57;84.60;100794.19;5041343;28;20052;-87
2021/09/17 08:42:24;;;;;;;0.20;0.20;;;;;;;12.67;85.92;100809.66;5033696;28;20071;-83
2021/09/17 08:44:58;;;;;;;0.20;0.20;;;;;;;12.66;85.08;100791.63;5044091;28;20049;-80
2021/09/17 08:47:32;;;;;;;0.10;0.10;;;;;;;12.86;83.96;100809.72;5034622;28;20072;-85
2021/09/17 08:50:07;;;;;;;0.20;0.20;;;;;;;12.79;84.48;100812.00;5037098;28;20048;-84
2021/09/17 08:52:44;;;;;;;0.25;0.20;;;;;;;12.97;83.50;100807.66;5033521;28;20063;-80
2021/09/17 08:55:18;;;;;;;0.20;0.20;;;;;;;12.92;84.80;100818.66;5036289;28;20052;-83
2021/09/17 08:57:47;;;;;;;0.10;0.10;;;;;;;12.84;80.95;100817.41;5039857;28;20053;-82
2021/09/17 09:00:41;;;;;;;0.10;0.10;;;;;;;12.93;83.36;100817.56;5031920;28;20053;-81
2021/09/17 09:03:27;;;;;;;0.20;0.20;;;;;;;13.04;82.88;100815.50;5024394;28;20056;-82
2021/09/17 09:06:13;;;;;;;0.20;0.20;;;;;;;13.03;82.00;100822.88;5040133;28;20060;-82
2021/09/17 09:08:50;;;;;;;;;;;;;;;13.19;82.90;100822.69;5041601;28;20049;-81
2021/09/17 09:11:25;;;;;;;0.10;0.10;;;;;;;13.31;84.35;100827.72;5058188;28;19924;-81
2021/09/17 09:14:01;;;;;;;0.20;0.20;;;;;;;13.18;82.12;100826.53;5045446;28;20067;-86
2021/09/17 09:16:39;;;;;;;0.20;0.20;;;;;;;12.97;80.41;100825.97;5040855;28;20064;-83
2021/09/17 09:19:22;;;;;;;0.20;0.20;;;;;;;12.72;82.38;100823.25;5046891;28;20056;-82
2021/09/17 09:22:10;;;;;;;0.20;0.20;;;;;;;12.99;81.72;100823.75;5043247;28;20053;-82
2021/09/17 09:24:45;;;;;;;0.20;0.20;;;;;;;13.06;82.47;100821.47;5056867;28;20056;-81
2021/09/17 09:27:15;;;;;;;0.20;0.20;;;;;;;13.18;82.78;100818.31;5042214;28;20064;-82
2021/09/17 09:29:51;;;;;;;0.20;0.20;;;;;;;13.31;80.36;100831.25;5043562;28;20041;-85
2021/09/17 09:32:29;;;;;;;0.20;0.20;;;;;;;13.34;79.66;100827.94;5056276;28;20041;-82
2021/09/17 09:34:59;;;;;;;0.20;0.20;;;;;;;13.17;78.31;100827.63;5061628;28;20798;-84
2021/09/17 09:37:34;;;;;;;0.10;0.10;;;;;;;13.24;80.99;100826.16;5037622;28;20049;-82
2021/09/17 09:40:14;;;;;;;0.20;0.20;;;;;;;13.32;79.10;100832.06;5037610;28;20401;-80
2021/09/17 09:42:48;;;;;;;0.20;0.20;;;;;;;13.47;81.46;100834.63;5039637;28;20111;-82
2021/09/17 09:45:24;;;;;;;0.20;0.20;;;;;;;13.31;80.06;100827.72;5042886;28;20049;-81
2021/09/17 09:47:59;;;;;;;0.20;0.20;;;;;;;13.30;79.10;100831.53;5039127;28;20059;-82
2021/09/17 09:50:28;;;;;;;0.20;0.20;;;;;;;13.13;80.22;100829.31;5038387;28;20745;-82
2021/09/17 09:53:02;;;;;;;0.10;0.10;;;;;;;13.06;77.88;100825.03;5047559;28;20064;-81
2021/09/17 09:55:47;;;;;;;0.13;0.13;;;;;;;13.04;80.23;100815.50;5056927;28;20532;-84
2021/09/17 09:58:21;;;;;;;0.20;0.20;;;;;;;13.00;78.55;100825.41;5049289;28;20056;-82
2021/09/17 10:00:54;;;;;;;0.20;0.20;;;;;;;12.97;78.73;100824.06;5024686;28;20485;-83
2021/09/17 10:03:56;;;;;;;0.20;0.20;;;;;;;13.06;82.02;100833.25;5047535;28;20623;-82
2021/09/17 10:06:31;;;;;;;0.20;0.20;;;;;;;12.96;80.66;100827.88;5041443;28;20048;-83
2021/09/17 10:09:07;;;;;;;0.20;0.20;;;;;;;12.74;81.96;100837.41;5036370;28;20041;-81
2021/09/17 10:11:50;;;;;;;0.20;0.20;;;;;;;12.86;82.98;100825.28;5054223;28;20060;-83
2021/09/17 10:14:28;;;;;;;0.10;0.10;;;;;;;12.98;81.55;100830.31;5041024;28;20756;-81
2021/09/17 10:17:06;;;;;;;0.50;0.20;;;;;;;13.09;82.42;100821.72;5042710;28;20621;-82
2021/09/17 10:19:40;;;;;;;0.17;0.17;;;;;;;12.92;84.45;100829.56;5042116;28;20048;-81
2021/09/17 10:22:27;;;;;;;0.20;0.20;;;;;;;12.97;83.28;100824.06;5039280;28;20069;-85
2021/09/17 10:25:07;;;;;;;0.20;0.20;;;;;;;13.13;80.48;100827.38;5043991;28;20057;-83
2021/09/17 10:27:38;;;;;;;0.20;0.20;;;;;;;13.36;83.03;100833.16;5041526;28;20455;-80
2021/09/17 10:30:15;;;;;;;0.20;0.20;;;;;;;13.36;80.79;100827.69;5061923;28;20056;-81
2021/09/17 10:32:52;;;;;;;0.20;0.20;;;;;;;13.40;79.92;100834.97;5042250;28;20068;-83
2021/09/17 10:35:29;;;;;;;1.13;0.20;;;;;;;13.18;81.11;100834.72;5041061;28;20428;-82
2021/09/17 10:38:10;;;;;;;0.20;0.20;;;;;;;13.20;82.26;100837.97;5021466;28;20532;-82
2021/09/17 10:40:55;;;;;;;0.20;0.20;;;;;;;13.07;83.12;100839.50;5047205;28;20057;-85
2021/09/17 10:43:33;;;;;;;0.20;0.20;;;;;;;13.24;83.59;100831.63;5061289;28;20072;-84
2021/09/17 10:46:32;;;;;;;0.20;0.20;;;;;;;13.43;81.49;100830.84;5042476;28;20853;-82
2021/09/17 10:49:05;;;;;;;0.20;0.20;;;;;;;13.49;82.16;100837.06;5044908;28;20075;-84
2021/09/17 10:51:41;;;;;;;0.20;0.20;;;;;;;13.39;79.46;100830.63;5039490;28;20049;-84
2021/09/17 10:54:19;;;;;;;0.20;0.20;;;;;;;13.36;80.91;100822.22;5044283;28;20037;-83
2021/09/17 10:57:05;;;;;;;0.20;0.20;;;;;;;13.37;77.89;100832.03;5041381;28;20061;-81
2021/09/17 10:59:44;;;;;;;0.10;0.10;;;;;;;13.23;82.71;100829.16;5043174;28;20508;-83
2021/09/17 11:02:13;;;;;;;0.20;0.20;;;;;;;13.21;82.54;100834.13;5059136;28;20053;-84
2021/09/17 11:04:48;;;;;;;0.20;0.20;;;;;;;13.02;79.52;100828.63;5040863;28;20412;-83
2021/09/17 11:07:34;;;;;;;0.20;0.20;;;;;;;13.00;81.45;100828.94;5045059;28;20060;-83
2021/09/17 11:10:26;;;;;;;0.20;0.20;;;;;;;13.04;80.51;100835.44;5038004;28;20045;-82
2021/09/17 11:13:17;;;;;;;0.20;0.20;;;;;;;13.02;79.90;100831.38;5041919;28;20053;-83
2021/09/17 11:15:56;;;;;;;0.20;0.20;;;;;;;12.95;82.52;100831.72;5042388;28;20596;-81
2021/09/17 11:18:50;;;;;;;0.10;0.10;;;;;;;12.97;81.90;100823.22;5054325;28;20560;-84
2021/09/17 11:22:25;;;;;;;0.13;0.13;;;;;;;13.14;81.60;100823.56;5039219;28;20056;-83
2021/09/17 11:25:05;;;;;;;0.20;0.20;;;;;;;13.12;81.26;100819.50;5045473;28;20092;-83
2021/09/17 11:27:41;;;;;;;0.20;0.20;;;;;;;13.25;81.92;100829.72;5039590;28;20064;-81
2021/09/17 11:30:15;;;;;;;0.28;0.20;;;;;;;13.23;81.24;100827.28;5054585;28;20079;-82
2021/09/17 11:32:56;;;;;;;0.20;0.20;;;;;;;13.32;81.08;100829.34;5039260;28;20064;-80
2021/09/17 11:35:24;;;;;;;0.20;0.20;;;;;;;13.44;80.28;100837.94;5038630;28;20436;-82
2021/09/17 11:38:00;;;;;;;0.20;0.20;;;;;;;13.42;82.55;100815.53;5014450;28;20416;-81
2021/09/17 11:40:34;;;;;;;0.10;0.10;;;;;;;13.56;81.78;100843.78;5039163;28;20045;-82
2021/09/17 11:43:18;;;;;;;0.20;0.20;;;;;;;13.49;81.22;100813.28;5039003;28;20064;-80
2021/09/17 11:45:54;;;;;;;0.20;0.20;;;;;;;13.52;81.35;100831.00;5038512;28;20041;-82
2021/09/17 11:48:30;;;;;;;0.20;0.20;;;;;;;13.58;82.85;100838.03;5048123;28;20040;-82
2021/09/17 11:50:59;;;;;;;0.13;0.13;;;;;;;13.62;78.86;100828.13;5042730;28;20053;-82
2021/09/17 11:53:27;;;;;;;0.20;0.20;;;;;;;13.92;79.13;100829.56;5033375;28;20498;-83
2021/09/17 11:56:07;;;;;;;0.20;0.20;;;;;;;13.85;80.08;100826.41;5035601;28;20667;-82
2021/09/17 11:58:41;;;;;;;0.40;0.30;;;;;;;13.79;78.20;100827.56;5035997;28;20060;-84
2021/09/17 12:01:19;;;;;;;0.43;0.20;;;;;;;13.77;80.22;100833.34;5041388;28;20068;-83
2021/09/17 12:03:50;;;;;;;0.10;0.10;;;;;;;13.70;79.42;100837.56;5033753;28;20056;-81